Time;durP1;ratioP1;P1;durP2;ratioP2;P2;SDS_P1;SDS_P2;PMS_P1;PMS_P2;Temp;Humidity;BMP_temperature;BMP_pressure;BME280_temperature;BME280_humidity;BME280_pressure;Samples;Min_cycle;Max_cycle;Signal;HPM_P1;HPM_P2
2023/09/29 00:02:15;;;;;;;5.18;3.97;;;;;;;15.80;76.52;100559.66;6220708;28;20058;-71
2023/09/29 00:05:19;;;;;;;5.55;3.80;;;;;;;15.81;75.48;100556.03;6196997;28;20458;-72
2023/09/29 00:08:22;;;;;;;5.68;4.15;;;;;;;15.85;77.51;100560.13;6213781;28;20068;-71
2023/09/29 00:11:23;;;;;;;5.30;4.10;;;;;;;15.80;77.00;100551.75;6222924;28;20145;-72
2023/09/29 00:14:24;;;;;;;6.65;4.18;;;;;;;15.80;77.76;100558.81;6217023;28;20057;-71
2023/09/29 00:17:25;;;;;;;6.70;4.53;;;;;;;15.75;77.01;100558.31;6217350;28;20058;-71
2023/09/29 00:20:26;;;;;;;10.85;4.05;;;;;;;15.76;76.97;100552.94;6213661;28;20054;-72
2023/09/29 00:23:27;;;;;;;10.17;4.27;;;;;;;15.71;77.50;100550.63;6220082;28;20062;-73
2023/09/29 00:26:28;;;;;;;7.65;4.22;;;;;;;15.69;78.08;100544.63;6213883;28;20827;-72
2023/09/29 00:29:29;;;;;;;6.80;4.25;;;;;;;15.65;77.14;100550.25;6213476;28;20137;-72
2023/09/29 00:32:29;;;;;;;6.80;4.20;;;;;;;15.64;76.59;100545.94;6214173;28;20054;-71
2023/09/29 00:35:33;;;;;;;7.65;4.28;;;;;;;15.63;76.80;100545.09;6215129;28;20120;-73
2023/09/29 00:38:34;;;;;;;7.15;4.10;;;;;;;15.62;76.98;100542.56;6214947;28;20548;-73
2023/09/29 00:41:37;;;;;;;5.47;3.92;;;;;;;15.63;76.76;100544.25;6214505;28;20050;-71
2023/09/29 00:44:39;;;;;;;5.95;4.28;;;;;;;15.63;78.35;100545.09;6214269;28;20053;-73
2023/09/29 00:47:42;;;;;;;9.52;4.28;;;;;;;15.58;79.51;100544.59;6212999;28;20071;-73
2023/09/29 00:50:44;;;;;;;7.10;4.30;;;;;;;15.52;79.82;100539.78;6219042;28;20045;-73
2023/09/29 00:53:48;;;;;;;5.63;4.10;;;;;;;15.44;79.79;100540.38;6215687;28;20050;-73
2023/09/29 00:56:49;;;;;;;9.40;4.30;;;;;;;15.40;79.32;100543.31;6214569;28;20084;-71
2023/09/29 00:59:51;;;;;;;9.27;4.40;;;;;;;15.37;78.95;100541.75;6214250;28;20745;-71
2023/09/29 01:02:52;;;;;;;5.93;4.28;;;;;;;15.38;79.44;100547.84;6212141;28;20054;-71
2023/09/29 01:05:53;;;;;;;7.40;4.47;;;;;;;15.36;79.85;100537.47;6215158;28;20184;-73
2023/09/29 01:08:56;;;;;;;6.18;4.28;;;;;;;15.36;79.39;100549.75;6211464;28;20057;-72
2023/09/29 01:11:59;;;;;;;11.63;4.57;;;;;;;15.32;79.56;100542.09;6218000;28;20049;-73
2023/09/29 01:15:00;;;;;;;5.55;4.00;;;;;;;15.35;79.78;100543.66;6216135;28;20062;-72
2023/09/29 01:18:02;;;;;;;6.72;4.30;;;;;;;15.25;79.40;100535.59;6208655;28;20141;-71
2023/09/29 01:21:06;;;;;;;6.25;4.40;;;;;;;15.27;80.28;100538.94;6212965;28;20046;-73
2023/09/29 01:24:07;;;;;;;10.88;4.38;;;;;;;15.22;80.33;100529.75;6212869;28;20046;-71
2023/09/29 01:27:08;;;;;;;17.00;4.38;;;;;;;15.15;79.99;100539.84;6209861;28;20052;-71
2023/09/29 01:30:19;;;;;;;11.73;4.35;;;;;;;15.18;80.97;100544.06;6209749;28;20045;-71
2023/09/29 01:33:23;;;;;;;8.98;4.88;;;;;;;15.17;81.75;100542.38;6221172;28;20478;-72
2023/09/29 01:36:24;;;;;;;6.93;4.40;;;;;;;15.18;82.77;100542.25;6212175;28;20399;-73
2023/09/29 01:39:25;;;;;;;8.75;4.53;;;;;;;15.12;83.74;100540.06;6214233;28;20053;-73
2023/09/29 01:42:29;;;;;;;7.43;4.40;;;;;;;15.06;83.95;100541.34;6215148;28;20041;-72
2023/09/29 01:45:32;;;;;;;8.07;4.97;;;;;;;15.00;83.92;100539.16;6215415;28;20045;-71
2023/09/29 01:48:33;;;;;;;7.22;4.22;;;;;;;14.97;84.99;100534.16;6213564;28;20060;-71
2023/09/29 01:51:34;;;;;;;9.20;4.70;;;;;;;14.93;84.90;100535.31;6207256;28;20053;-72
2023/09/29 01:54:38;;;;;;;6.32;4.43;;;;;;;14.86;85.59;100534.88;6207834;28;20302;-73
2023/09/29 01:57:41;;;;;;;8.15;4.63;;;;;;;14.81;86.16;100536.19;6214272;28;20088;-73
2023/09/29 02:00:42;;;;;;;8.35;5.20;;;;;;;14.76;86.52;100539.13;6210658;28;20422;-73
2023/09/29 02:03:45;;;;;;;10.77;4.85;;;;;;;14.76;86.07;100538.28;6214684;28;20124;-73
2023/09/29 02:06:46;;;;;;;11.98;4.68;;;;;;;14.76;87.24;100535.66;6216834;28;20487;-71
2023/09/29 02:09:46;;;;;;;10.88;5.07;;;;;;;14.75;87.35;100542.72;6210918;28;20054;-73
2023/09/29 02:12:53;;;;;;;8.57;4.90;;;;;;;14.71;86.19;100539.44;6213554;28;20067;-71
2023/09/29 02:15:54;;;;;;;10.85;5.32;;;;;;;14.71;87.25;100547.31;6208271;28;20537;-71
2023/09/29 02:18:55;;;;;;;7.15;4.68;;;;;;;14.68;86.99;100547.56;6207822;28;20057;-72
2023/09/29 02:21:56;;;;;;;7.38;4.97;;;;;;;14.63;88.25;100543.56;6242944;28;20050;-72
2023/09/29 02:25:06;;;;;;;8.23;4.22;;;;;;;14.54;86.88;100544.16;6213812;28;20112;-71
2023/09/29 02:28:09;;;;;;;10.32;4.80;;;;;;;14.52;86.67;100549.53;6212434;28;20046;-73
2023/09/29 02:31:13;;;;;;;6.65;4.28;;;;;;;14.55;86.88;100551.94;6220162;28;20049;-73
2023/09/29 02:34:15;;;;;;;6.20;4.45;;;;;;;14.54;87.19;100550.28;6212674;28;20437;-72
2023/09/29 02:37:21;;;;;;;11.10;4.90;;;;;;;14.51;88.08;100546.06;6216035;28;20137;-73
2023/09/29 02:40:23;;;;;;;6.18;4.68;;;;;;;14.47;89.14;100546.38;6216206;28;20043;-73
2023/09/29 02:43:24;;;;;;;7.90;4.90;;;;;;;14.46;89.09;100544.72;6204573;28;20406;-73
2023/09/29 02:46:25;;;;;;;12.18;5.32;;;;;;;14.43;89.41;100553.66;6211071;28;20062;-71
2023/09/29 02:49:30;;;;;;;8.88;5.03;;;;;;;14.40;89.42;100553.03;6218040;28;20183;-73
2023/09/29 02:52:31;;;;;;;8.40;4.95;;;;;;;14.32;90.84;100545.66;6217017;28;20049;-72
2023/09/29 02:55:33;;;;;;;7.13;5.43;;;;;;;14.34;89.97;100538.53;6215063;28;20401;-72
2023/09/29 02:58:34;;;;;;;9.43;5.55;;;;;;;14.28;90.04;100539.78;6206933;28;20133;-73
2023/09/29 03:01:35;;;;;;;8.25;4.93;;;;;;;14.21;90.08;100535.91;6215669;28;20046;-73
2023/09/29 03:04:39;;;;;;;8.50;4.82;;;;;;;14.14;90.08;100541.69;6214374;28;21547;-72
2023/09/29 03:07:41;;;;;;;10.25;4.97;;;;;;;14.07;90.53;100539.47;6211130;28;20708;-71
2023/09/29 03:10:44;;;;;;;7.53;4.80;;;;;;;14.12;90.69;100528.66;6238115;28;20104;-71
2023/09/29 03:13:45;;;;;;;10.73;5.07;;;;;;;14.10;91.15;100533.16;6208303;28;20042;-73
2023/09/29 03:16:46;;;;;;;7.05;4.40;;;;;;;14.04;91.09;100525.72;6208004;28;20498;-71
2023/09/29 03:19:52;;;;;;;9.83;5.23;;;;;;;14.07;91.14;100531.59;6208488;28;20046;-73
2023/09/29 03:22:58;;;;;;;9.60;4.65;;;;;;;14.08;91.22;100535.91;6214357;28;20062;-72
2023/09/29 03:25:59;;;;;;;8.88;5.10;;;;;;;13.97;92.20;100538.41;6211502;28;20702;-73
2023/09/29 03:29:00;;;;;;;7.57;5.18;;;;;;;13.91;92.96;100541.44;6210703;28;20422;-72
2023/09/29 03:32:01;;;;;;;11.75;5.47;;;;;;;13.91;91.97;100538.81;6239890;28;20053;-73
2023/09/29 03:35:06;;;;;;;6.90;4.70;;;;;;;13.91;91.38;100550.16;6239648;28;20049;-72
2023/09/29 03:38:08;;;;;;;13.18;4.85;;;;;;;13.91;91.84;100541.44;6208492;28;20088;-73
2023/09/29 03:41:10;;;;;;;7.55;5.32;;;;;;;13.87;91.27;100546.06;6211690;28;20152;-73
2023/09/29 03:44:12;;;;;;;15.32;4.68;;;;;;;13.83;91.43;100534.09;6210574;28;20082;-73
2023/09/29 03:47:13;;;;;;;11.02;5.30;;;;;;;13.84;91.52;100546.28;6213369;28;20053;-73
2023/09/29 03:50:14;;;;;;;7.78;4.55;;;;;;;13.78;91.11;100549.31;6220813;28;20061;-73
2023/09/29 03:53:16;;;;;;;11.43;5.63;;;;;;;13.79;91.95;100542.28;6216910;28;20045;-73
2023/09/29 03:56:22;;;;;;;11.90;4.72;;;;;;;13.75;91.58;100546.88;6219308;28;20065;-72
2023/09/29 03:59:24;;;;;;;7.47;4.70;;;;;;;13.67;91.41;100541.28;6216980;28;20041;-73
2023/09/29 04:02:26;;;;;;;7.20;5.00;;;;;;;13.54;92.11;100550.91;6215351;28;20054;-72
2023/09/29 04:05:27;;;;;;;11.57;5.35;;;;;;;13.56;91.62;100556.91;6226244;28;20057;-72
2023/09/29 04:08:27;;;;;;;7.28;5.57;;;;;;;13.70;91.77;100556.84;6227468;28;20046;-73
2023/09/29 04:11:28;;;;;;;10.02;6.15;;;;;;;13.65;91.06;100561.53;6223150;28;20082;-72
2023/09/29 04:14:30;;;;;;;11.37;5.53;;;;;;;13.68;91.23;100563.97;6232290;28;20054;-72
2023/09/29 04:17:31;;;;;;;14.00;5.75;;;;;;;13.69;91.11;100569.13;6226143;28;20137;-73
2023/09/29 04:20:32;;;;;;;7.68;5.10;;;;;;;13.65;90.27;100561.53;6226195;28;20104;-73
2023/09/29 04:23:35;;;;;;;8.32;5.28;;;;;;;13.72;90.71;100567.25;6225704;28;20456;-72
2023/09/29 04:26:36;;;;;;;8.73;5.38;;;;;;;13.57;90.97;100571.69;6225780;28;20057;-72
2023/09/29 04:29:37;;;;;;;8.85;5.88;;;;;;;13.64;90.73;100562.50;6224627;28;20046;-71
2023/09/29 04:32:38;;;;;;;6.40;4.82;;;;;;;13.64;91.92;100567.72;6224139;28;20056;-71
2023/09/29 04:35:39;;;;;;;11.02;5.32;;;;;;;13.56;91.38;100568.22;6225573;28;20480;-72
2023/09/29 04:38:41;;;;;;;12.27;5.88;;;;;;;13.61;91.12;100567.91;6223712;28;20049;-71
2023/09/29 04:41:42;;;;;;;9.43;6.28;;;;;;;13.65;92.44;100569.41;6224797;28;20049;-71
2023/09/29 04:44:43;;;;;;;14.10;5.25;;;;;;;13.60;92.59;100568.88;6223988;28;20049;-71
2023/09/29 04:47:46;;;;;;;10.52;5.90;;;;;;;13.51;92.27;100565.06;6206416;28;20053;-72
2023/09/29 04:50:47;;;;;;;7.60;5.57;;;;;;;13.58;92.90;100568.13;6205033;28;20138;-72
2023/09/29 04:53:48;;;;;;;11.55;6.32;;;;;;;13.61;93.29;100570.53;6219673;28;20075;-72
2023/09/29 04:56:49;;;;;;;10.05;5.78;;;;;;;13.65;92.37;100575.50;6200421;28;20054;-72
2023/09/29 04:59:50;;;;;;;10.60;6.25;;;;;;;13.67;92.33;100578.00;6198313;28;20388;-73
2023/09/29 05:02:51;;;;;;;9.35;5.28;;;;;;;13.72;92.03;100573.31;6199075;28;20181;-73
2023/09/29 05:05:52;;;;;;;8.13;5.38;;;;;;;13.73;91.47;100580.22;6198721;28;20066;-73
2023/09/29 05:08:53;;;;;;;10.93;5.85;;;;;;;13.80;91.47;100584.13;6231494;28;20042;-72
2023/09/29 05:11:54;;;;;;;11.68;5.85;;;;;;;13.80;92.16;100586.75;6198753;28;20054;-71
2023/09/29 05:14:57;;;;;;;13.23;6.28;;;;;;;13.79;92.65;100577.19;6199266;28;20085;-73
2023/09/29 05:17:58;;;;;;;10.60;5.63;;;;;;;13.82;93.07;100590.13;6200069;28;20105;-72
2023/09/29 05:20:59;;;;;;;8.23;5.57;;;;;;;13.84;92.17;100576.91;6199021;28;20495;-72
2023/09/29 05:24:00;;;;;;;9.07;5.97;;;;;;;13.86;92.82;100582.91;6198563;28;20082;-73
2023/09/29 05:27:01;;;;;;;8.85;6.10;;;;;;;13.81;92.85;100585.81;6198855;28;20058;-73
2023/09/29 05:30:03;;;;;;;9.60;6.32;;;;;;;13.83;93.28;100590.97;6200020;28;20129;-73
2023/09/29 05:33:04;;;;;;;9.85;6.20;;;;;;;13.89;93.15;100590.56;6199772;28;20450;-72
2023/09/29 05:36:08;;;;;;;8.38;6.28;;;;;;;13.94;92.57;100598.09;6198769;28;20054;-73
2023/09/29 05:39:09;;;;;;;9.30;5.90;;;;;;;14.02;93.06;100599.31;6207641;28;20281;-72
2023/09/29 05:42:11;;;;;;;15.45;5.95;;;;;;;13.98;93.24;100589.97;6221104;28;20050;-71
2023/09/29 05:45:12;;;;;;;12.95;6.88;;;;;;;14.03;92.68;100595.72;6222123;28;20096;-72
2023/09/29 05:48:13;;;;;;;8.77;5.55;;;;;;;14.22;91.25;100602.34;6223766;28;20050;-71
2023/09/29 05:51:14;;;;;;;12.52;6.32;;;;;;;14.35;91.49;100595.34;6222069;28;20056;-71
2023/09/29 05:54:14;;;;;;;10.00;6.32;;;;;;;14.50;89.73;100603.94;6222070;28;20420;-72
2023/09/29 05:57:18;;;;;;;13.88;6.28;;;;;;;14.61;89.38;100600.63;6255222;28;20136;-73
2023/09/29 06:00:19;;;;;;;11.70;6.32;;;;;;;14.74;89.47;100605.84;6222017;28;20050;-73
2023/09/29 06:03:20;;;;;;;18.42;6.50;;;;;;;14.88;89.15;100600.47;6222160;28;20058;-73
2023/09/29 06:06:23;;;;;;;11.27;5.50;;;;;;;14.98;88.51;100611.19;6222079;28;20068;-73
2023/09/29 06:09:26;;;;;;;12.65;6.35;;;;;;;15.08;86.92;100612.22;6222050;28;20332;-73
2023/09/29 06:12:29;;;;;;;14.02;6.90;;;;;;;15.17;87.09;100610.72;6222922;28;20055;-73
2023/09/29 06:15:30;;;;;;;12.30;6.07;;;;;;;15.47;87.54;100612.94;6223109;28;20061;-72
2023/09/29 06:18:31;;;;;;;11.07;6.72;;;;;;;15.56;85.06;100614.03;6221352;28;20635;-72
2023/09/29 06:21:32;;;;;;;10.02;5.97;;;;;;;15.79;85.44;100621.09;6221638;28;20057;-72
2023/09/29 06:24:33;;;;;;;11.85;6.65;;;;;;;15.92;85.24;100621.06;6222494;28;20060;-72
2023/09/29 06:27:34;;;;;;;10.37;6.00;;;;;;;15.95;83.60;100623.44;6222480;28;20512;-72
2023/09/29 06:30:35;;;;;;;13.20;6.35;;;;;;;16.08;83.29;100626.84;6221419;28;20042;-72
2023/09/29 06:33:36;;;;;;;17.35;6.47;;;;;;;16.28;82.13;100627.97;6221026;28;20085;-72
2023/09/29 06:36:36;;;;;;;9.95;5.90;;;;;;;16.37;80.65;100631.72;6222292;28;20100;-73
2023/09/29 06:39:37;;;;;;;11.63;6.60;;;;;;;16.24;80.02;100628.31;6221211;28;20050;-73
2023/09/29 06:42:39;;;;;;;8.88;5.38;;;;;;;16.50;79.67;100631.59;6222668;28;20537;-72
2023/09/29 06:45:42;;;;;;;16.53;6.27;;;;;;;16.64;80.08;100633.19;6222483;28;20052;-73
2023/09/29 06:48:43;;;;;;;13.93;6.03;;;;;;;16.88;79.36;100625.19;6221940;28;20052;-72
2023/09/29 06:51:45;;;;;;;14.80;6.15;;;;;;;17.07;78.24;100643.88;6220774;28;20053;-73
2023/09/29 06:54:45;;;;;;;9.52;5.65;;;;;;;17.25;77.84;100636.28;6221955;28;20054;-73
2023/09/29 06:57:46;;;;;;;15.20;6.10;;;;;;;17.16;77.70;100639.66;6253913;28;20088;-72
2023/09/29 07:00:49;;;;;;;10.70;5.55;;;;;;;17.16;76.08;100644.94;6220734;28;20046;-72
2023/09/29 07:03:52;;;;;;;8.85;6.35;;;;;;;17.43;77.06;100647.16;6222294;28;20112;-73
2023/09/29 07:06:53;;;;;;;8.60;5.40;;;;;;;17.73;76.42;100651.75;6220685;28;20469;-73
2023/09/29 07:09:55;;;;;;;9.43;5.35;;;;;;;17.93;75.11;100654.59;6221173;28;20054;-73
2023/09/29 07:12:56;;;;;;;8.03;4.80;;;;;;;18.00;74.22;100654.94;6221985;28;20100;-72
2023/09/29 07:15:58;;;;;;;7.35;5.13;;;;;;;18.15;72.79;100647.53;6222168;28;20359;-73
2023/09/29 07:19:01;;;;;;;10.45;5.28;;;;;;;18.46;74.20;100659.84;6221828;28;20046;-72
2023/09/29 07:22:02;;;;;;;11.75;5.60;;;;;;;18.60;71.99;100665.78;6221309;28;20056;-73
2023/09/29 07:25:05;;;;;;;8.35;5.30;;;;;;;18.73;72.70;100663.75;6253513;28;20501;-73
2023/09/29 07:28:14;;;;;;;6.72;4.90;;;;;;;18.87;71.08;100657.31;6222171;28;20046;-73
2023/09/29 07:31:15;;;;;;;9.80;5.53;;;;;;;19.21;71.87;100657.00;6221836;28;20145;-73
2023/09/29 07:34:16;;;;;;;16.50;5.97;;;;;;;19.43;71.42;100648.84;6221928;28;20054;-72
2023/09/29 07:37:19;;;;;;;12.50;5.70;;;;;;;19.59;70.19;100652.78;6220651;28;20444;-72
2023/09/29 07:40:20;;;;;;;8.73;5.10;;;;;;;19.76;68.75;100657.41;6221946;28;20042;-73
2023/09/29 07:43:23;;;;;;;6.87;4.90;;;;;;;19.89;69.56;100650.03;6221852;28;20053;-72
2023/09/29 07:46:24;;;;;;;12.93;5.00;;;;;;;20.07;68.04;100654.63;6220509;28;20395;-74
2023/09/29 07:49:25;;;;;;;8.90;5.03;;;;;;;20.06;66.41;100652.97;6220488;28;20556;-72
2023/09/29 07:52:28;;;;;;;6.32;4.90;;;;;;;20.28;68.92;100663.25;6220377;28;20362;-72
2023/09/29 07:55:29;;;;;;;8.15;4.43;;;;;;;20.56;67.33;100663.31;6221730;28;20137;-74
2023/09/29 07:58:29;;;;;;;7.87;4.90;;;;;;;20.77;65.91;100663.16;6221459;28;20058;-72
2023/09/29 08:01:32;;;;;;;7.07;4.67;;;;;;;20.86;65.28;100667.59;6220295;28;20073;-73
2023/09/29 08:04:35;;;;;;;7.97;4.72;;;;;;;20.98;64.80;100662.97;6221392;28;20086;-73
2023/09/29 08:07:36;;;;;;;9.15;5.13;;;;;;;20.96;64.04;100664.06;6221246;28;20057;-73
2023/09/29 08:10:37;;;;;;;10.80;5.40;;;;;;;21.18;64.29;100665.50;6220554;28;20516;-73
2023/09/29 08:13:38;;;;;;;9.73;5.53;;;;;;;21.38;62.97;100666.25;6253376;28;20054;-73
2023/09/29 08:16:38;;;;;;;11.17;6.37;;;;;;;21.53;60.54;100668.25;6221309;28;20053;-73
2023/09/29 08:19:42;;;;;;;7.87;5.23;;;;;;;21.66;60.99;100669.69;6220061;28;20050;-73
2023/09/29 08:22:46;;;;;;;14.05;5.88;;;;;;;21.91;60.68;100670.78;6219997;28;20057;-73
2023/09/29 08:25:48;;;;;;;10.15;5.05;;;;;;;22.04;59.54;100660.59;6220863;28;20053;-72
2023/09/29 08:28:48;;;;;;;9.40;5.50;;;;;;;22.24;58.32;100666.59;6219889;28;20042;-73
2023/09/29 08:31:49;;;;;;;9.77;4.57;;;;;;;22.38;57.85;100667.84;6219922;28;20490;-73
2023/09/29 08:34:50;;;;;;;11.63;5.23;;;;;;;22.60;56.40;100665.69;6224536;28;20053;-73
2023/09/29 08:37:51;;;;;;;7.60;4.63;;;;;;;22.70;57.53;100672.56;6257219;28;20280;-74
2023/09/29 08:40:55;;;;;;;10.43;5.50;;;;;;;22.79;54.50;100676.09;6224181;28;20497;-73
2023/09/29 08:43:57;;;;;;;10.23;5.15;;;;;;;22.62;54.08;100669.84;6224085;28;20049;-73
2023/09/29 08:47:01;;;;;;;7.30;4.40;;;;;;;22.76;53.59;100670.28;6225037;28;20513;-73
2023/09/29 08:50:07;;;;;;;11.52;5.10;;;;;;;22.94;54.12;100671.84;6256914;28;20054;-73
2023/09/29 08:53:12;;;;;;;9.63;5.30;;;;;;;23.36;54.55;100677.38;6224842;28;20073;-73
2023/09/29 08:56:18;;;;;;;12.02;5.00;;;;;;;23.59;56.17;100670.44;6223696;28;20050;-73
2023/09/29 08:59:21;;;;;;;12.18;5.10;;;;;;;23.84;55.05;100667.84;6224349;28;20050;-73
2023/09/29 09:02:26;;;;;;;7.68;4.43;;;;;;;24.04;54.66;100666.50;6220725;28;20049;-73
2023/09/29 09:05:28;;;;;;;9.20;4.90;;;;;;;24.20;54.13;100665.69;6221237;28;20469;-73
2023/09/29 09:08:28;;;;;;;;;;;;;;;24.42;54.80;100664.16;6225120;28;20489;-73
2023/09/29 09:11:41;;;;;;;5.88;3.97;;;;;;;24.69;54.60;100667.47;6224392;28;19936;-73
2023/09/29 09:14:44;;;;;;;7.82;4.68;;;;;;;24.70;51.92;100661.94;6224068;28;20049;-73
2023/09/29 09:17:45;;;;;;;8.02;4.60;;;;;;;24.86;52.49;100660.25;6224896;28;20084;-74
2023/09/29 09:20:53;;;;;;;6.47;4.53;;;;;;;25.18;52.80;100658.44;6224055;28;20092;-73
2023/09/29 09:23:54;;;;;;;10.70;3.85;;;;;;;25.28;50.30;100662.56;6224011;28;20053;-73
2023/09/29 09:27:02;;;;;;;8.65;4.28;;;;;;;25.46;51.03;100656.97;6223948;28;20053;-73
2023/09/29 09:30:03;;;;;;;6.35;4.38;;;;;;;25.70;50.50;100658.66;6223615;28;20459;-73
2023/09/29 09:33:23;;;;;;;6.22;4.15;;;;;;;25.78;50.30;100662.28;6223963;28;20096;-73
2023/09/29 09:36:23;;;;;;;10.00;3.92;;;;;;;26.00;49.68;100653.44;6222617;28;20049;-73
2023/09/29 09:39:28;;;;;;;13.10;4.72;;;;;;;26.11;48.36;100657.56;6255654;28;20050;-73
2023/09/29 09:42:29;;;;;;;10.15;4.50;;;;;;;26.00;45.80;100652.63;6222725;28;20049;-73
2023/09/29 09:45:37;;;;;;;8.50;3.65;;;;;;;26.29;47.64;100647.31;6223186;28;20057;-73
2023/09/29 09:49:09;;;;;;;7.55;4.03;;;;;;;26.50;47.27;100646.63;6222389;28;20060;-73
2023/09/29 09:52:15;;;;;;;13.18;3.72;;;;;;;26.57;43.82;100645.91;6223635;28;20196;-74
2023/09/29 09:55:18;;;;;;;13.60;4.60;;;;;;;26.63;45.75;100655.91;6222107;28;20053;-73
2023/09/29 09:58:22;;;;;;;13.38;4.30;;;;;;;26.84;44.44;100655.16;6222353;28;20045;-74
2023/09/29 10:01:27;;;;;;;12.15;4.72;;;;;;;26.88;42.64;100653.78;6223302;28;20184;-73
2023/09/29 10:04:32;;;;;;;5.40;3.67;;;;;;;27.02;41.24;100644.88;6223381;28;20104;-73
2023/09/29 10:19:46;;;;;;;6.40;3.28;;;;;;;26.72;36.67;100641.41;6318521;27;20370;-70
2023/09/29 10:22:54;;;;;;;16.73;3.80;;;;;;;27.13;37.28;100641.72;6318132;28;20486;-70
2023/09/29 10:26:01;;;;;;;6.93;3.30;;;;;;;27.33;37.95;100642.00;6317126;28;20052;-69
2023/09/29 10:29:08;;;;;;;6.60;3.63;;;;;;;27.49;40.39;100629.38;6318326;28;20053;-70
2023/09/29 10:32:15;;;;;;;6.43;3.58;;;;;;;27.45;36.98;100636.16;6318278;28;20052;-70
2023/09/29 10:35:20;;;;;;;9.57;3.38;;;;;;;27.85;37.86;100625.78;6318297;28;20045;-70
2023/09/29 10:38:30;;;;;;;10.02;3.30;;;;;;;27.43;37.84;100624.78;6316185;28;20421;-70
2023/09/29 10:41:34;;;;;;;6.10;3.50;;;;;;;27.77;37.54;100617.88;6318200;28;20097;-70
2023/09/29 10:44:47;;;;;;;3.63;3.10;;;;;;;27.89;36.62;100619.06;6317698;28;20051;-69
2023/09/29 10:47:50;;;;;;;5.03;3.45;;;;;;;27.90;36.76;100608.13;6318082;28;20540;-70
2023/09/29 10:50:51;;;;;;;6.25;3.63;;;;;;;28.06;37.66;100606.19;6317625;28;20062;-70
2023/09/29 10:53:52;;;;;;;9.30;3.10;;;;;;;27.61;35.27;100598.34;6316473;28;20052;-70
2023/09/29 10:56:56;;;;;;;4.32;3.22;;;;;;;27.97;38.59;100604.69;6317435;28;20135;-70
2023/09/29 10:59:59;;;;;;;7.90;3.40;;;;;;;28.33;37.29;100597.31;6316673;28;20109;-69
2023/09/29 11:03:02;;;;;;;9.93;3.65;;;;;;;28.45;37.41;100602.09;6317338;28;20102;-70
2023/09/29 11:06:08;;;;;;;6.15;3.80;;;;;;;28.69;38.16;100588.22;6317332;28;20048;-70
2023/09/29 11:09:16;;;;;;;9.93;3.50;;;;;;;28.63;36.08;100593.56;6317358;28;20071;-70
2023/09/29 11:12:17;;;;;;;6.43;3.40;;;;;;;28.60;37.55;100576.00;6317654;28;20048;-70
2023/09/29 11:15:19;;;;;;;7.20;3.20;;;;;;;28.51;35.39;100585.25;6317290;28;20102;-70
2023/09/29 11:18:33;;;;;;;6.32;3.30;;;;;;;28.62;35.68;100576.66;6317065;28;20107;-70
2023/09/29 11:21:35;;;;;;;7.85;3.65;;;;;;;28.82;35.94;100578.56;6315923;28;20488;-70
2023/09/29 11:24:44;;;;;;;9.95;4.00;;;;;;;28.76;34.21;100580.19;6317347;28;20048;-70
2023/09/29 11:27:49;;;;;;;9.55;4.05;;;;;;;28.81;35.04;100572.38;6316965;28;20044;-71
2023/09/29 11:30:50;;;;;;;12.95;4.60;;;;;;;28.76;34.74;100564.09;6301734;28;20178;-70
2023/09/29 11:33:54;;;;;;;10.88;3.55;;;;;;;28.91;36.19;100564.78;6298986;28;20048;-70
2023/09/29 11:36:55;;;;;;;11.75;4.35;;;;;;;29.01;35.00;100566.22;6298947;28;20058;-70
2023/09/29 11:39:56;;;;;;;8.10;3.60;;;;;;;29.03;35.90;100553.44;6298936;28;20086;-70
2023/09/29 11:42:57;;;;;;;8.65;3.63;;;;;;;29.03;34.93;100556.94;6299900;28;20056;-70
2023/09/29 11:45:58;;;;;;;7.00;3.35;;;;;;;28.96;36.34;100548.03;6299987;28;20490;-69
2023/09/29 11:48:59;;;;;;;12.80;4.13;;;;;;;28.90;37.08;100556.91;6298598;28;20135;-70
2023/09/29 11:52:01;;;;;;;10.50;4.00;;;;;;;29.05;36.47;100560.25;6299671;28;20048;-70
2023/09/29 11:55:03;;;;;;;8.52;3.13;;;;;;;29.20;35.50;100551.22;6298346;28;20044;-70
2023/09/29 11:58:04;;;;;;;6.25;3.47;;;;;;;29.00;33.43;100553.84;6299670;28;20070;-70
2023/09/29 12:01:06;;;;;;;8.38;3.30;;;;;;;28.94;36.40;100545.56;6300174;28;20180;-70
2023/09/29 12:04:06;;;;;;;8.43;3.28;;;;;;;28.84;34.44;100542.41;6299653;28;20091;-70
2023/09/29 12:07:07;;;;;;;11.85;3.65;;;;;;;29.18;33.81;100538.00;6298145;28;20080;-70
2023/09/29 12:10:09;;;;;;;8.90;3.65;;;;;;;29.20;35.34;100533.25;6299184;28;20063;-70
2023/09/29 12:13:15;;;;;;;11.48;3.88;;;;;;;29.16;35.65;100534.69;6299220;28;20078;-70
2023/09/29 12:16:16;;;;;;;12.50;3.50;;;;;;;29.25;34.60;100532.63;6299281;28;20131;-70
2023/09/29 12:19:17;;;;;;;7.63;3.40;;;;;;;29.33;36.08;100527.88;6298789;28;20114;-69
2023/09/29 12:22:18;;;;;;;5.13;3.33;;;;;;;29.30;35.19;100519.41;6298993;28;20139;-70
2023/09/29 12:25:20;;;;;;;8.32;4.00;;;;;;;29.18;36.25;100524.56;6297769;28;20106;-70
2023/09/29 12:28:21;;;;;;;4.32;3.08;;;;;;;29.17;34.60;100524.78;6297672;28;20056;-70
2023/09/29 12:31:22;;;;;;;7.95;3.28;;;;;;;28.78;34.29;100521.75;6297490;28;20049;-70
2023/09/29 12:34:23;;;;;;;7.65;2.95;;;;;;;28.56;34.82;100523.75;6298661;28;20050;-70
2023/09/29 12:37:24;;;;;;;15.98;3.72;;;;;;;28.75;35.67;100514.13;6298688;28;20410;-70
2023/09/29 12:40:25;;;;;;;9.95;3.53;;;;;;;28.48;34.86;100513.97;6297975;28;20136;-71
2023/09/29 12:43:28;;;;;;;5.18;3.40;;;;;;;28.98;34.78;100512.94;6298239;28;20044;-71
2023/09/29 12:46:29;;;;;;;5.60;3.28;;;;;;;28.98;34.35;100510.25;6298284;28;20056;-70
2023/09/29 12:49:30;;;;;;;8.90;3.67;;;;;;;28.83;33.71;100508.56;6297075;28;20505;-70
2023/09/29 12:52:30;;;;;;;4.15;3.13;;;;;;;28.90;33.43;100503.19;6297260;28;20082;-70
2023/09/29 12:55:34;;;;;;;6.43;2.90;;;;;;;28.99;33.28;100507.34;6296883;28;20048;-71
2023/09/29 12:58:38;;;;;;;5.85;3.05;;;;;;;29.15;33.94;100499.97;6297055;28;20048;-71
2023/09/29 13:01:39;;;;;;;5.00;3.10;;;;;;;28.97;32.78;100506.72;6296845;28;20082;-71
2023/09/29 13:04:41;;;;;;;9.73;3.20;;;;;;;29.07;31.97;100500.94;6296967;28;20063;-71
2023/09/29 13:07:42;;;;;;;5.10;3.28;;;;;;;29.04;32.89;100501.38;6296487;28;20045;-70
2023/09/29 13:10:44;;;;;;;10.55;3.38;;;;;;;28.75;33.53;100497.19;6296629;28;20653;-70
2023/09/29 13:13:45;;;;;;;5.00;3.33;;;;;;;28.86;34.32;100496.56;6297862;28;20075;-70
2023/09/29 13:16:46;;;;;;;5.38;3.05;;;;;;;28.93;33.06;100492.88;6296115;28;20048;-71
2023/09/29 13:19:47;;;;;;;5.05;3.35;;;;;;;28.83;33.46;100486.25;6297733;28;20048;-70
2023/09/29 13:22:50;;;;;;;5.30;3.13;;;;;;;28.86;35.99;100486.66;6297551;28;20118;-71
2023/09/29 13:25:51;;;;;;;4.20;2.95;;;;;;;28.66;31.41;100480.41;6297555;28;20101;-70
2023/09/29 13:28:52;;;;;;;4.03;3.00;;;;;;;28.63;34.73;100486.19;6296291;28;20080;-70
2023/09/29 13:31:53;;;;;;;9.25;3.30;;;;;;;28.59;35.27;100483.06;6297353;28;20060;-70
2023/09/29 13:34:54;;;;;;;13.35;3.45;;;;;;;28.62;35.09;100480.00;6297329;28;20060;-70
2023/09/29 13:37:55;;;;;;;7.45;3.22;;;;;;;28.46;36.16;100491.88;6297279;28;20044;-71
2023/09/29 13:40:56;;;;;;;5.53;3.17;;;;;;;28.40;33.65;100487.31;6297270;28;20102;-71
2023/09/29 13:43:57;;;;;;;;;;;;;;;28.34;36.02;100486.25;6297502;28;20429;-70
2023/09/29 13:46:57;;;;;;;3.80;2.93;;;;;;;28.30;36.18;100479.63;6297115;28;19920;-70
2023/09/29 13:50:01;;;;;;;4.75;3.50;;;;;;;28.32;34.54;100476.75;6295899;28;20083;-70
2023/09/29 13:53:02;;;;;;;6.43;3.08;;;;;;;28.00;32.27;100473.69;6295680;28;20056;-70
2023/09/29 13:56:04;;;;;;;9.90;3.30;;;;;;;27.85;33.58;100470.28;6291269;28;20044;-70
2023/09/29 13:59:05;;;;;;;8.32;3.13;;;;;;;27.88;33.52;100472.59;6287210;28;20135;-70
2023/09/29 14:02:07;;;;;;;9.57;3.75;;;;;;;27.87;35.76;100462.91;6283169;28;20131;-70
2023/09/29 14:05:08;;;;;;;7.78;3.25;;;;;;;27.83;34.17;100462.44;6286601;28;20053;-70
2023/09/29 14:08:09;;;;;;;10.55;3.80;;;;;;;27.65;32.24;100454.06;6283544;28;20410;-71
2023/09/29 14:11:10;;;;;;;6.57;3.17;;;;;;;27.60;32.56;100454.66;6272009;28;20095;-70
2023/09/29 14:14:11;;;;;;;7.38;3.55;;;;;;;27.57;33.58;100455.03;6281794;28;20045;-70
2023/09/29 14:17:12;;;;;;;6.28;3.80;;;;;;;27.58;33.46;100448.66;6292702;28;20486;-70